Time;durP1;ratioP1;P1;durP2;ratioP2;P2;SDS_P1;SDS_P2;PMS_P1;PMS_P2;Temp;Humidity;BMP_temperature;BMP_pressure;BME280_temperature;BME280_humidity;BME280_pressure;Samples;Min_cycle;Max_cycle;Signal;HPM_P1;HPM_P2
2022/03/29 00:02:10;;;;;;;16.17;7.60;;;;;;;6.65;72.82;100091.02;3549612;82;98712;-83
2022/03/29 00:07:11;;;;;;;16.67;7.63;;;;;;;6.55;72.56;100090.98;3549925;82;98820;-85
2022/03/29 00:12:12;;;;;;;15.78;6.87;;;;;;;6.46;72.71;100080.86;3545488;80;98720;-84
2022/03/29 00:17:13;;;;;;;17.70;9.40;;;;;;;6.39;73.51;100083.41;3534801;82;98784;-84
2022/03/29 00:22:14;;;;;;;15.50;7.73;;;;;;;6.30;73.64;100080.67;3543724;82;98709;-85
2022/03/29 00:27:15;;;;;;;16.83;8.43;;;;;;;6.23;73.72;100079.16;3549439;82;98493;-84
2022/03/29 00:32:16;;;;;;;16.47;8.37;;;;;;;6.18;73.90;100076.69;3526900;82;98674;-85
2022/03/29 00:37:17;;;;;;;15.20;7.33;;;;;;;6.12;74.04;100070.70;3541659;82;98661;-85
2022/03/29 00:42:18;;;;;;;16.83;8.13;;;;;;;6.06;74.09;100069.98;3509968;82;98714;-86
2022/03/29 00:47:19;;;;;;;19.70;9.23;;;;;;;5.99;74.36;100078.80;3541437;82;99087;-85
2022/03/29 00:52:20;;;;;;;18.73;9.37;;;;;;;5.88;74.97;100068.75;3520115;82;98424;-85
2022/03/29 00:57:22;;;;;;;21.30;8.30;;;;;;;5.73;75.78;100064.86;3514169;81;98542;-85
2022/03/29 01:02:23;;;;;;;18.77;9.00;;;;;;;5.62;75.71;100065.18;3501884;82;98955;-85
2022/03/29 01:07:27;;;;;;;18.03;9.53;;;;;;;5.56;76.57;100066.59;3517581;82;97812;-85
2022/03/29 01:12:33;;;;;;;20.37;10.63;;;;;;;5.51;76.83;100064.71;3523681;81;98680;-85
2022/03/29 01:17:41;;;;;;;17.27;9.10;;;;;;;5.47;77.53;100063.26;3518636;83;98833;-85
2022/03/29 01:22:46;;;;;;;18.45;9.58;;;;;;;5.46;78.16;100048.59;3514669;82;98715;-85
2022/03/29 01:27:49;;;;;;;19.17;9.23;;;;;;;5.49;78.65;100035.59;3530462;82;98580;-84
2022/03/29 01:32:53;;;;;;;18.62;9.70;;;;;;;5.51;78.98;100038.19;3507748;82;98901;-84
2022/03/29 01:37:55;;;;;;;17.87;9.38;;;;;;;5.58;79.11;100019.84;3525627;82;98812;-84
2022/03/29 01:43:00;;;;;;;19.17;9.58;;;;;;;5.63;79.51;100031.86;3529146;80;99457;-83
2022/03/29 01:48:00;;;;;;;19.57;9.85;;;;;;;5.66;80.17;100018.85;3534321;82;99016;-84
2022/03/29 01:53:01;;;;;;;21.33;10.58;;;;;;;5.71;80.68;100012.56;3528843;82;98537;-84
2022/03/29 01:58:02;;;;;;;21.57;10.53;;;;;;;5.77;80.59;100004.31;3518763;82;98446;-85
2022/03/29 02:03:06;;;;;;;23.73;11.90;;;;;;;5.82;80.88;100004.08;3513867;81;98764;-84
2022/03/29 02:08:07;;;;;;;28.77;13.72;;;;;;;5.89;80.64;99995.27;3517459;82;99009;-84
2022/03/29 02:13:09;;;;;;;35.30;15.53;;;;;;;5.93;81.02;99995.55;3539948;80;98480;-84
2022/03/29 02:18:10;;;;;;;40.63;19.07;;;;;;;5.99;80.94;99989.22;3522192;81;98724;-85
2022/03/29 02:23:15;;;;;;;40.13;20.13;;;;;;;5.99;81.06;99987.30;3514473;81;98654;-85
2022/03/29 02:28:16;;;;;;;39.38;20.57;;;;;;;6.03;81.10;99992.27;3528226;82;34855;-85
2022/03/29 02:33:17;;;;;;;43.33;22.23;;;;;;;6.07;81.40;100000.53;3508271;82;98701;-84
2022/03/29 02:38:20;;;;;;;40.67;20.63;;;;;;;6.08;81.48;99991.99;3513035;82;98891;-84
2022/03/29 02:43:21;;;;;;;39.48;21.27;;;;;;;6.10;81.30;100002.53;3515321;82;98655;-85
2022/03/29 02:48:22;;;;;;;38.43;21.10;;;;;;;6.09;81.89;100004.49;3543574;82;98700;-85
2022/03/29 02:53:23;;;;;;;43.80;22.03;;;;;;;6.09;82.41;100014.62;3524984;81;99212;-85
2022/03/29 02:58:23;;;;;;;39.10;22.23;;;;;;;6.07;82.06;100007.36;3544423;82;32552;-83
2022/03/29 03:03:26;;;;;;;39.13;19.70;;;;;;;6.08;81.94;100007.58;3524893;82;98939;-85
2022/03/29 03:08:27;;;;;;;37.27;20.17;;;;;;;6.08;82.49;100013.04;3542605;82;98814;-85
2022/03/29 03:13:28;;;;;;;37.37;19.97;;;;;;;6.04;82.37;100003.41;3538674;81;98832;-84
2022/03/29 03:18:28;;;;;;;44.30;20.60;;;;;;;6.03;82.50;100008.66;3531108;82;98813;-85
2022/03/29 03:23:30;;;;;;;37.50;20.40;;;;;;;6.02;82.76;99993.98;3521081;82;98925;-84
2022/03/29 03:28:31;;;;;;;40.60;20.40;;;;;;;6.02;82.98;99989.33;3561296;82;32504;-84
2022/03/29 03:33:32;;;;;;;37.10;20.60;;;;;;;6.02;82.83;99988.52;3532506;82;98853;-85
2022/03/29 03:38:34;;;;;;;38.03;19.33;;;;;;;6.03;83.17;99986.80;3559213;82;98502;-85
2022/03/29 03:43:35;;;;;;;36.50;18.27;;;;;;;6.01;83.00;99971.92;3517065;82;98640;-85
2022/03/29 03:48:36;;;;;;;39.43;21.00;;;;;;;5.98;83.12;99970.69;3543731;82;99091;-83
2022/03/29 03:53:37;;;;;;;37.43;18.77;;;;;;;5.99;83.34;99970.10;3524210;82;99023;-84
2022/03/29 03:58:37;;;;;;;39.73;20.37;;;;;;;5.99;83.48;99973.64;3529730;82;32531;-84
2022/03/29 04:03:39;;;;;;;39.07;19.17;;;;;;;5.99;83.50;99963.27;3508467;82;98748;-84
2022/03/29 04:08:40;;;;;;;39.37;19.43;;;;;;;5.99;83.48;99970.91;3524904;82;98571;-85
2022/03/29 04:13:41;;;;;;;34.40;20.00;;;;;;;5.97;84.03;99956.02;3530526;81;98800;-85
2022/03/29 04:18:42;;;;;;;35.17;19.33;;;;;;;5.96;84.80;99958.55;3541112;80;98695;-85
2022/03/29 04:23:43;;;;;;;39.83;20.50;;;;;;;5.96;85.05;99962.64;3526438;81;98622;-84
2022/03/29 04:28:44;;;;;;;29.23;16.80;;;;;;;5.94;84.51;99961.63;3543054;82;26269;-85
2022/03/29 04:33:46;;;;;;;33.02;17.35;;;;;;;5.96;84.16;99963.44;3510116;82;98773;-85
2022/03/29 04:38:46;;;;;;;33.50;17.40;;;;;;;5.97;84.56;99953.29;3526165;81;98633;-85
2022/03/29 04:43:47;;;;;;;33.63;17.50;;;;;;;5.98;84.59;99958.97;3528406;82;98660;-85
2022/03/29 04:48:50;;;;;;;34.20;18.73;;;;;;;6.00;84.67;99955.32;3526879;82;98738;-85
2022/03/29 04:53:51;;;;;;;35.23;18.23;;;;;;;5.98;84.62;99948.04;3533025;82;98643;-85
2022/03/29 04:58:51;;;;;;;36.50;16.03;;;;;;;5.99;84.74;99955.08;3544574;82;26333;-84
2022/03/29 05:03:52;;;;;;;37.83;18.40;;;;;;;6.02;84.95;99949.72;3522639;82;98583;-84
2022/03/29 05:08:53;;;;;;;36.30;19.10;;;;;;;6.01;85.06;99952.80;3521981;82;99004;-84
2022/03/29 05:13:54;;;;;;;32.93;17.60;;;;;;;6.03;85.12;99949.13;3534706;82;98632;-83
2022/03/29 05:18:55;;;;;;;32.42;16.80;;;;;;;6.04;85.39;99946.61;3504367;83;98656;-85
2022/03/29 05:23:56;;;;;;;32.83;15.50;;;;;;;6.06;85.09;99948.42;3502643;82;98590;-85
2022/03/29 05:28:57;;;;;;;31.97;15.60;;;;;;;6.10;85.13;99955.53;3536801;82;33948;-85
2022/03/29 05:33:58;;;;;;;30.00;15.87;;;;;;;6.10;85.56;99958.27;3511291;82;98545;-85
2022/03/29 05:38:59;;;;;;;29.80;16.53;;;;;;;6.11;85.35;99951.65;3520208;83;98489;-84
2022/03/29 05:44:00;;;;;;;29.40;16.00;;;;;;;6.14;85.56;99952.31;3510460;82;98644;-83
2022/03/29 05:49:02;;;;;;;29.57;15.67;;;;;;;6.17;85.54;99954.31;3516393;82;98561;-84
2022/03/29 05:54:04;;;;;;;32.77;16.73;;;;;;;6.18;85.38;99949.09;3559055;82;98700;-85
2022/03/29 05:59:07;;;;;;;33.47;16.37;;;;;;;6.20;85.35;99954.97;3556159;82;32806;-84
2022/03/29 06:04:08;;;;;;;31.85;16.40;;;;;;;6.20;85.49;99965.90;3432485;84;98480;-84
2022/03/29 06:09:09;;;;;;;31.17;15.63;;;;;;;6.22;85.28;99961.45;3560624;82;98557;-84
2022/03/29 06:14:10;;;;;;;30.80;15.63;;;;;;;6.24;85.36;99968.14;3561277;82;98746;-85
2022/03/29 06:19:12;;;;;;;33.37;16.57;;;;;;;6.35;84.95;99966.41;3562868;82;98687;-84
2022/03/29 06:24:13;;;;;;;32.07;16.53;;;;;;;6.35;84.95;99966.41;3556847;82;98661;-85
2022/03/29 06:29:14;;;;;;;31.30;17.47;;;;;;;6.37;84.82;99968.77;3561412;82;98696;-83
2022/03/29 06:34:15;;;;;;;33.73;15.17;;;;;;;6.39;84.83;99968.63;3568634;82;98580;-83
2022/03/29 06:39:16;;;;;;;31.07;15.10;;;;;;;6.44;85.03;99969.70;3475594;84;98042;-82
2022/03/29 06:44:17;;;;;;;29.37;14.80;;;;;;;6.48;84.97;99977.41;3485686;84;99055;-83
2022/03/29 06:49:19;;;;;;;25.13;14.57;;;;;;;6.55;84.46;99974.80;3489653;82;98617;-83
2022/03/29 06:54:20;;;;;;;26.27;14.90;;;;;;;6.59;84.27;99978.41;3472409;83;98883;-82
2022/03/29 06:59:21;;;;;;;29.77;14.10;;;;;;;6.66;84.23;99982.63;3560651;82;98675;-82
2022/03/29 07:04:22;;;;;;;27.93;14.70;;;;;;;6.73;83.93;99979.25;3536886;82;98350;-82
2022/03/29 07:14:42;;;;;;;24.75;12.43;;;;;;;6.85;83.24;99981.25;3551314;82;98316;-83
2022/03/29 07:19:43;;;;;;;25.23;13.03;;;;;;;6.94;82.94;99983.19;3556060;82;98739;-83
2022/03/29 07:24:45;;;;;;;27.60;13.43;;;;;;;7.04;82.38;99977.69;3552122;82;98609;-83
2022/03/29 07:29:46;;;;;;;23.10;11.30;;;;;;;7.12;81.76;99976.64;3555647;82;97768;-83
2022/03/29 07:34:47;;;;;;;24.97;12.63;;;;;;;7.23;81.47;99974.88;3533630;82;98335;-84
2022/03/29 07:39:53;;;;;;;25.50;13.67;;;;;;;7.34;80.53;99975.28;3544002;82;98544;-83
2022/03/29 07:44:51;;;;;;;21.35;9.75;;;;;;;7.42;79.75;99978.34;3535635;82;98488;-85
2022/03/29 07:49:52;;;;;;;21.27;9.10;;;;;;;7.50;78.07;99981.42;3532909;82;98495;-83
2022/03/29 07:54:53;;;;;;;23.93;9.37;;;;;;;7.56;77.46;99979.95;3526782;82;98557;-83
2022/03/29 07:59:54;;;;;;;27.87;10.47;;;;;;;7.65;76.43;99975.58;3544498;82;98445;-83
2022/03/29 08:04:55;;;;;;;23.20;10.60;;;;;;;7.72;76.05;99985.27;3531805;82;98642;-82
2022/03/29 08:09:55;;;;;;;21.23;10.53;;;;;;;7.76;75.65;99977.90;3532898;82;98511;-82
2022/03/29 08:14:56;;;;;;;23.67;10.53;;;;;;;7.78;75.03;99974.20;3532870;82;98511;-81
2022/03/29 08:19:57;;;;;;;21.07;12.07;;;;;;;7.76;75.30;99975.96;3534253;82;98739;-83
2022/03/29 08:24:59;;;;;;;26.75;12.10;;;;;;;7.81;75.09;99979.72;3522263;82;98608;-83
2022/03/29 08:30:00;;;;;;;22.90;11.38;;;;;;;7.84;75.07;99982.31;3544865;82;98697;-84
2022/03/29 08:35:04;;;;;;;21.07;11.97;;;;;;;7.78;75.19;99970.89;3549128;82;98253;-82
2022/03/29 08:40:13;;;;;;;32.97;15.23;;;;;;;7.75;75.07;99974.95;3538222;82;98343;-83
2022/03/29 08:45:16;;;;;;;24.67;13.43;;;;;;;7.73;74.69;99968.47;3543882;82;98508;-83
2022/03/29 08:50:17;;;;;;;27.80;13.80;;;;;;;7.76;74.42;99969.11;3534397;82;98712;-83
2022/03/29 08:55:20;;;;;;;38.53;18.90;;;;;;;7.90;74.52;99971.27;3536363;82;98926;-82
2022/03/29 09:00:27;;;;;;;28.62;13.55;;;;;;;8.05;73.64;99957.38;3535184;82;98746;-83
2022/03/29 09:05:28;;;;;;;28.90;14.10;;;;;;;8.11;72.58;99951.78;3530803;82;98630;-83
2022/03/29 09:10:48;;;;;;;23.17;11.87;;;;;;;8.22;71.91;99958.80;3538427;82;25930;-82
2022/03/29 09:15:51;;;;;;;27.40;13.17;;;;;;;8.23;70.72;99961.77;3518577;82;98471;-82
2022/03/29 09:21:17;;;;;;;24.47;12.20;;;;;;;8.29;70.44;99952.05;3533172;81;98564;-82
2022/03/29 09:26:27;;;;;;;23.67;12.23;;;;;;;8.37;70.39;99950.39;3530558;82;98629;-82
2022/03/29 09:31:28;;;;;;;24.72;13.25;;;;;;;8.39;69.96;99946.68;3539622;82;98768;-83
2022/03/29 09:36:39;;;;;;;21.48;12.05;;;;;;;8.46;69.70;99949.50;3540453;82;98726;-82
2022/03/29 09:41:40;;;;;;;26.05;12.98;;;;;;;8.49;69.60;99944.65;3535185;82;98781;-81
2022/03/29 09:47:04;;;;;;;31.63;15.57;;;;;;;8.52;69.96;99939.80;3541247;82;32172;-80
2022/03/29 09:52:18;;;;;;;27.93;13.48;;;;;;;8.54;68.92;99930.61;3544922;82;98679;-81
2022/03/29 09:57:18;;;;;;;27.52;13.43;;;;;;;8.40;68.81;99921.44;3573000;82;97758;-82
2022/03/29 10:02:19;;;;;;;25.20;13.03;;;;;;;8.40;68.97;99928.29;3537645;82;98774;-82
2022/03/29 10:07:20;;;;;;;25.13;13.53;;;;;;;8.46;69.26;99924.82;3547334;82;98820;-83
2022/03/29 10:12:23;;;;;;;27.50;13.60;;;;;;;8.54;69.51;99926.49;3545259;82;98672;-82
2022/03/29 10:17:26;;;;;;;28.30;13.57;;;;;;;8.57;68.81;99922.21;3547742;82;98629;-82
2022/03/29 10:22:28;;;;;;;29.53;13.73;;;;;;;8.56;68.42;99913.18;3542604;82;98367;-82
2022/03/29 10:27:30;;;;;;;29.63;14.55;;;;;;;8.55;68.93;99917.09;3562180;82;99001;-82
2022/03/29 10:32:32;;;;;;;26.75;13.80;;;;;;;8.57;68.85;99907.13;3524590;82;98750;-82
2022/03/29 10:37:56;;;;;;;33.05;14.60;;;;;;;8.52;68.44;99896.49;3553699;82;99130;-82
2022/03/29 10:43:18;;;;;;;29.20;13.87;;;;;;;8.48;68.60;99894.28;3500458;82;98833;-83
2022/03/29 10:48:19;;;;;;;28.70;13.72;;;;;;;8.46;68.85;99891.91;3557101;82;98753;-82
2022/03/29 10:53:32;;;;;;;26.73;14.07;;;;;;;8.53;69.25;99884.35;3543806;81;98522;-82
2022/03/29 10:58:33;;;;;;;31.30;13.98;;;;;;;8.58;69.07;99882.08;3532850;82;34491;-81
2022/03/29 11:03:36;;;;;;;25.87;13.97;;;;;;;8.67;68.98;99869.42;3517163;82;98582;-81
2022/03/29 11:08:47;;;;;;;27.40;14.75;;;;;;;8.70;69.12;99872.20;3538705;82;98455;-81
2022/03/29 11:13:48;;;;;;;30.32;15.53;;;;;;;8.75;69.15;99870.48;3550652;82;98777;-83
2022/03/29 11:18:50;;;;;;;36.43;15.73;;;;;;;8.84;69.27;99867.42;3543017;82;98704;-82
2022/03/29 11:23:53;;;;;;;32.33;16.20;;;;;;;8.81;69.46;99862.11;3528660;82;98742;-83
2022/03/29 11:28:58;;;;;;;35.03;18.92;;;;;;;8.88;69.17;99865.50;3498237;82;32761;-81
2022/03/29 11:33:59;;;;;;;30.35;15.48;;;;;;;8.93;69.39;99862.38;3499145;82;98705;-82
2022/03/29 11:39:00;;;;;;;29.00;15.70;;;;;;;8.91;69.15;99858.67;3524888;82;98462;-81
2022/03/29 11:44:05;;;;;;;31.50;17.13;;;;;;;8.89;69.40;99862.36;3525545;82;98752;-81
2022/03/29 11:49:07;;;;;;;29.18;16.48;;;;;;;8.83;69.45;99858.98;3517239;81;98765;-81
2022/03/29 11:54:08;;;;;;;32.80;16.90;;;;;;;8.73;69.94;99861.05;3537200;82;98677;-81
2022/03/29 11:59:15;;;;;;;33.47;16.77;;;;;;;8.70;70.20;99849.45;3517596;82;31644;-81
2022/03/29 12:04:16;;;;;;;32.00;15.95;;;;;;;8.66;70.32;99840.39;3504874;82;98381;-81
2022/03/29 12:09:23;;;;;;;29.53;15.83;;;;;;;8.67;70.53;99835.14;3517846;82;98534;-82
2022/03/29 12:14:27;;;;;;;27.00;15.88;;;;;;;8.66;70.38;99837.65;3527566;82;98666;-82
2022/03/29 12:19:30;;;;;;;32.80;16.12;;;;;;;8.64;70.42;99832.56;3488998;83;98936;-81
2022/03/29 12:24:44;;;;;;;33.77;18.50;;;;;;;8.64;70.24;99822.97;3500019;82;98798;-81
2022/03/29 12:29:50;;;;;;;38.80;15.80;;;;;;;8.65;70.17;99809.45;3484514;82;98696;-82
2022/03/29 12:35:03;;;;;;;29.82;16.45;;;;;;;8.67;70.12;99807.70;3530619;82;98242;-82
2022/03/29 12:40:10;;;;;;;33.20;17.37;;;;;;;8.70;70.15;99797.33;3529878;82;98637;-81
2022/03/29 12:45:09;;;;;;;41.02;16.40;;;;;;;8.75;69.98;99790.92;3527240;82;98879;-82
2022/03/29 12:50:10;;;;;;;31.47;15.63;;;;;;;8.78;69.47;99781.91;3488096;82;98726;-82
2022/03/29 12:55:19;;;;;;;32.60;16.03;;;;;;;8.89;69.49;99771.03;3516152;81;98696;-82
2022/03/29 13:00:20;;;;;;;32.05;15.95;;;;;;;8.99;68.91;99762.09;3525775;82;99395;-83
2022/03/29 13:05:23;;;;;;;27.00;13.93;;;;;;;9.11;68.60;99752.94;3502413;82;98740;-82
2022/03/29 13:10:42;;;;;;;33.67;14.28;;;;;;;9.29;67.96;99747.55;3533160;82;32894;-82
2022/03/29 13:16:00;;;;;;;28.40;14.70;;;;;;;9.57;67.00;99744.94;3542725;80;98528;-82
2022/03/29 13:21:21;;;;;;;36.27;17.00;;;;;;;9.80;66.23;99744.83;3546532;82;98473;-81
2022/03/29 13:26:26;;;;;;;27.97;13.77;;;;;;;10.11;65.92;99734.54;3529150;82;98870;-81
2022/03/29 13:31:31;;;;;;;27.27;13.33;;;;;;;10.26;64.62;99725.72;3549506;81;99087;-83
2022/03/29 13:36:32;;;;;;;23.57;13.40;;;;;;;10.41;63.24;99725.33;3522524;81;99038;-81
2022/03/29 13:41:36;;;;;;;26.27;13.90;;;;;;;10.53;63.65;99716.67;3511193;82;99262;-82
2022/03/29 13:46:37;;;;;;;23.12;12.30;;;;;;;10.64;62.21;99709.20;3513813;82;31898;-82
2022/03/29 13:51:38;;;;;;;26.67;12.83;;;;;;;10.74;61.08;99698.01;3511595;82;99189;-81
2022/03/29 13:56:39;;;;;;;22.27;11.70;;;;;;;10.76;60.38;99695.06;3547329;82;98863;-81
2022/03/29 14:01:42;;;;;;;26.07;12.60;;;;;;;10.75;59.53;99692.69;3542941;82;99031;-83
2022/03/29 14:06:42;;;;;;;24.12;11.83;;;;;;;10.73;58.70;99689.53;3545354;81;99087;-82
2022/03/29 14:11:43;;;;;;;26.47;13.57;;;;;;;10.71;59.39;99681.70;3525679;82;99154;-83
2022/03/29 14:16:46;;;;;;;23.80;11.40;;;;;;;10.82;59.03;99675.58;3535304;82;31698;-81
2022/03/29 14:21:47;;;;;;;27.03;12.37;;;;;;;10.81;58.74;99669.09;3525267;82;99100;-81
2022/03/29 14:26:49;;;;;;;24.83;12.97;;;;;;;10.84;58.73;99666.94;3541893;82;99110;-81
2022/03/29 14:31:50;;;;;;;23.22;12.03;;;;;;;10.91;58.22;99659.41;3468418;84;99178;-81
2022/03/29 14:36:51;;;;;;;22.23;11.87;;;;;;;10.96;57.72;99648.00;3448544;84;99065;-81
2022/03/29 14:41:52;;;;;;;22.52;11.05;;;;;;;10.87;57.46;99627.59;3414503;84;99312;-81
2022/03/29 14:46:59;;;;;;;26.77;12.53;;;;;;;10.84;56.92;99636.66;3446458;84;31708;-82
2022/03/29 14:52:04;;;;;;;22.37;12.85;;;;;;;10.77;57.26;99636.08;3431576;85;99116;-81
2022/03/29 14:57:06;;;;;;;23.02;12.13;;;;;;;10.71;56.63;99621.73;3454959;84;98968;-84
2022/03/29 15:02:08;;;;;;;21.27;11.18;;;;;;;10.66;55.98;99620.17;3452330;84;98859;-83
2022/03/29 15:07:09;;;;;;;19.82;10.78;;;;;;;10.56;55.98;99611.35;3445531;84;99007;-82
2022/03/29 15:12:10;;;;;;;22.60;11.13;;;;;;;10.46;54.93;99607.26;3441550;83;99044;-83
2022/03/29 15:17:14;;;;;;;20.50;10.37;;;;;;;10.45;55.15;99602.91;3468514;84;31720;-82
2022/03/29 15:22:15;;;;;;;21.02;10.65;;;;;;;10.46;54.68;99595.64;3459745;84;99259;-82
2022/03/29 15:27:15;;;;;;;22.67;10.30;;;;;;;10.44;54.55;99592.52;3466432;85;98909;-82
2022/03/29 15:32:16;;;;;;;23.13;11.40;;;;;;;10.42;54.40;99587.22;3452942;85;99296;-81
2022/03/29 15:37:18;;;;;;;21.27;10.30;;;;;;;10.35;54.56;99583.11;3441674;85;99064;-82
2022/03/29 15:42:20;;;;;;;21.03;9.50;;;;;;;10.26;54.58;99576.61;3447318;84;99118;-81
2022/03/29 15:47:22;;;;;;;17.73;8.67;;;;;;;10.19;54.70;99578.00;3441755;84;98960;-81
2022/03/29 15:52:23;;;;;;;22.57;10.70;;;;;;;10.14;54.68;99573.51;3415535;85;98932;-83
2022/03/29 15:57:24;;;;;;;22.20;10.47;;;;;;;10.07;54.33;99569.37;3460365;84;98899;-82
2022/03/29 16:02:25;;;;;;;15.23;8.73;;;;;;;9.99;53.59;99561.72;3459142;85;98912;-82
2022/03/29 16:07:27;;;;;;;24.43;10.80;;;;;;;9.96;54.19;99561.69;3453036;84;98454;-81
2022/03/29 16:12:30;;;;;;;33.43;16.93;;;;;;;9.90;53.06;99559.14;3444658;84;98797;-82
2022/03/29 16:17:31;;;;;;;20.23;9.83;;;;;;;9.83;53.31;99559.15;3461354;84;98619;-82
2022/03/29 16:22:32;;;;;;;26.70;11.07;;;;;;;9.76;52.87;99559.16;3448197;84;98559;-83
2022/03/29 16:27:36;;;;;;;21.43;9.93;;;;;;;9.67;52.78;99558.17;3443930;84;98824;-82
2022/03/29 16:32:38;;;;;;;18.67;10.05;;;;;;;9.57;53.60;99558.14;3441355;84;98637;-84
2022/03/29 16:37:39;;;;;;;21.53;8.67;;;;;;;9.44;53.53;99553.61;3435132;85;98638;-83
2022/03/29 16:42:40;;;;;;;17.20;9.13;;;;;;;9.33;53.48;99558.91;3449347;83;98277;-83
2022/03/29 16:47:41;;;;;;;14.93;7.80;;;;;;;9.21;53.54;99558.67;3463647;84;98660;-83
2022/03/29 16:52:43;;;;;;;17.67;8.30;;;;;;;9.07;53.57;99559.22;3453643;84;98910;-83
2022/03/29 16:57:44;;;;;;;19.35;7.58;;;;;;;8.91;53.89;99559.58;3470606;84;98287;-83
2022/03/29 17:02:45;;;;;;;14.47;7.07;;;;;;;8.75;54.23;99560.48;3430121;84;98475;-83
2022/03/29 17:07:46;;;;;;;13.70;7.17;;;;;;;8.68;55.00;99561.03;3431107;85;98501;-83
2022/03/29 17:12:47;;;;;;;24.07;12.73;;;;;;;8.57;54.89;99556.85;3441644;85;98837;-82
2022/03/29 17:17:50;;;;;;;29.00;15.73;;;;;;;8.33;55.63;99555.34;3452561;85;98761;-83
2022/03/29 17:22:51;;;;;;;22.03;12.27;;;;;;;8.15;56.53;99544.84;3446830;84;98412;-83
2022/03/29 17:27:52;;;;;;;15.33;8.13;;;;;;;7.99;56.29;99553.92;3446005;85;98535;-83
2022/03/29 17:32:53;;;;;;;19.87;9.00;;;;;;;7.72;57.22;99549.80;3416178;84;99875;-82
2022/03/29 17:37:54;;;;;;;25.63;10.70;;;;;;;7.52;58.05;99551.97;3462229;84;98926;-82
2022/03/29 17:42:55;;;;;;;22.17;10.57;;;;;;;7.36;59.02;99557.50;3437094;84;98760;-82
2022/03/29 17:47:56;;;;;;;23.90;12.33;;;;;;;7.17;59.78;99557.68;3443553;85;98605;-83
2022/03/29 17:52:59;;;;;;;23.50;11.47;;;;;;;6.96;60.13;99556.88;3410967;85;98407;-83
2022/03/29 17:58:00;;;;;;;26.60;12.67;;;;;;;6.74;60.81;99549.59;3442713;84;98500;-83
2022/03/29 18:03:03;;;;;;;27.57;13.30;;;;;;;6.50;61.17;99556.88;3411204;85;98712;-83
2022/03/29 18:08:04;;;;;;;30.95;15.48;;;;;;;6.27;61.71;99559.51;3455515;85;98804;-82
2022/03/29 18:13:12;;;;;;;30.13;15.73;;;;;;;6.12;62.38;99565.31;3456912;85;98664;-83
2022/03/29 18:18:16;;;;;;;31.07;15.18;;;;;;;5.92;62.58;99552.14;3468093;84;98688;-83
2022/03/29 18:23:19;;;;;;;34.08;15.50;;;;;;;5.81;63.59;99558.81;3468344;84;99202;-83
2022/03/29 18:28:21;;;;;;;39.17;17.33;;;;;;;5.64;63.53;99555.75;3453512;84;98585;-82
2022/03/29 18:33:24;;;;;;;32.27;15.50;;;;;;;5.47;63.84;99557.61;3453893;84;98831;-82
2022/03/29 18:38:26;;;;;;;33.10;17.07;;;;;;;5.31;64.19;99563.20;3415889;85;98771;-82
2022/03/29 18:43:28;;;;;;;41.58;19.00;;;;;;;5.17;64.93;99569.74;3438024;84;98699;-83
2022/03/29 18:48:35;;;;;;;36.63;18.60;;;;;;;5.03;65.10;99578.23;3454151;85;98825;-83
2022/03/29 18:53:39;;;;;;;37.30;17.60;;;;;;;4.94;65.33;99579.02;3437943;84;98368;-83
2022/03/29 18:58:42;;;;;;;32.60;16.97;;;;;;;4.83;65.74;99581.55;3438189;85;98560;-83
2022/03/29 19:03:43;;;;;;;36.17;17.87;;;;;;;4.74;66.42;99585.05;3430294;85;98655;-83
2022/03/29 19:08:47;;;;;;;42.90;20.00;;;;;;;4.66;66.85;99585.27;3465245;84;98967;-82
2022/03/29 19:13:49;;;;;;;36.40;18.02;;;;;;;4.56;66.96;99578.45;3449441;84;98397;-83
2022/03/29 19:18:50;;;;;;;35.13;18.77;;;;;;;4.44;66.94;99581.87;3451054;84;97845;-84
2022/03/29 19:23:55;;;;;;;45.77;22.67;;;;;;;4.34;67.40;99588.68;3425504;85;98592;-83
2022/03/29 19:28:56;;;;;;;38.88;20.27;;;;;;;4.22;67.60;99575.75;3444271;84;98528;-83
2022/03/29 19:33:57;;;;;;;43.13;19.93;;;;;;;4.10;68.05;99573.92;3421335;85;98496;-83
2022/03/29 19:39:39;;;;;;;42.13;21.37;;;;;;;4.02;68.61;99577.64;3461202;84;98793;-83
2022/03/29 19:44:50;;;;;;;38.45;17.27;;;;;;;3.88;68.68;99575.93;3283041;87;98829;-82
2022/03/29 19:49:54;;;;;;;33.20;15.60;;;;;;;3.78;69.09;99575.10;3351808;86;98776;-83
2022/03/29 19:54:58;;;;;;;35.83;15.57;;;;;;;3.73;69.31;99574.59;3344590;86;98775;-82
2022/03/29 20:00:02;;;;;;;35.87;17.17;;;;;;;3.66;69.80;99573.07;3389105;84;98756;-84
2022/03/29 20:05:15;;;;;;;42.95;17.82;;;;;;;3.61;69.84;99574.10;3392280;85;98234;-84
2022/03/29 20:10:18;;;;;;;40.93;20.47;;;;;;;3.59;70.67;99566.87;3402243;86;98618;-83
2022/03/29 20:15:20;;;;;;;42.40;19.13;;;;;;;3.56;70.46;99566.20;3481406;82;98773;-83
2022/03/29 20:20:22;;;;;;;42.78;20.70;;;;;;;3.50;70.56;99570.92;3553279;82;98680;-83
2022/03/29 20:25:24;;;;;;;43.47;19.80;;;;;;;3.48;71.14;99573.98;3532901;82;98720;-83
2022/03/29 20:30:26;;;;;;;39.58;20.85;;;;;;;3.45;71.25;99571.17;3547829;81;98687;-82
2022/03/29 20:35:30;;;;;;;40.60;18.07;;;;;;;3.43;71.84;99568.00;3503434;82;98286;-82
2022/03/29 20:40:32;;;;;;;48.00;21.80;;;;;;;3.39;71.74;99560.34;3531767;82;98552;-83
2022/03/29 20:45:35;;;;;;;62.62;27.32;;;;;;;3.38;71.95;99555.46;3547299;82;98553;-84
2022/03/29 20:50:38;;;;;;;48.63;22.47;;;;;;;3.35;72.11;99562.17;3537034;82;98623;-84
2022/03/29 20:55:42;;;;;;;63.75;27.32;;;;;;;3.29;72.23;99554.83;3523448;82;98706;-84
2022/03/29 21:00:43;;;;;;;59.37;26.57;;;;;;;3.25;72.50;99555.89;3552236;82;98745;-84
2022/03/29 21:05:43;;;;;;;62.93;24.17;;;;;;;3.17;72.70;99556.27;3557096;82;98233;-84
2022/03/29 21:10:47;;;;;;;47.60;20.00;;;;;;;3.13;72.85;99551.33;3561286;81;98458;-85
2022/03/29 21:15:49;;;;;;;52.87;23.13;;;;;;;3.09;72.89;99551.00;3524890;82;99313;-84
2022/03/29 21:20:51;;;;;;;48.53;20.83;;;;;;;3.06;73.03;99555.78;3549486;82;98630;-84
2022/03/29 21:25:54;;;;;;;53.48;21.65;;;;;;;2.97;73.19;99559.22;3552824;82;98694;-83
2022/03/29 21:30:55;;;;;;;41.68;18.60;;;;;;;2.90;73.46;99553.02;3550508;82;97877;-83
2022/03/29 21:35:56;;;;;;;48.50;23.03;;;;;;;2.79;73.43;99554.66;3561605;82;98604;-83
2022/03/29 21:40:57;;;;;;;48.65;22.77;;;;;;;2.73;73.65;99560.70;3561927;82;98387;-83
2022/03/29 21:45:58;;;;;;;56.40;24.57;;;;;;;2.67;74.16;99553.94;3558431;82;98476;-83
2022/03/29 21:50:59;;;;;;;48.97;21.53;;;;;;;2.60;73.97;99559.95;3534371;81;98752;-83
2022/03/29 21:56:01;;;;;;;56.63;24.63;;;;;;;2.57;73.89;99559.86;3540883;82;98733;-82
2022/03/29 22:01:03;;;;;;;52.10;25.00;;;;;;;2.51;74.20;99554.45;3538914;82;99100;-83
2022/03/29 22:06:04;;;;;;;64.40;28.37;;;;;;;2.44;74.23;99555.02;3548939;82;98281;-83
2022/03/29 22:11:04;;;;;;;56.53;24.67;;;;;;;2.36;74.47;99556.52;3537957;81;98730;-84
2022/03/29 22:16:05;;;;;;;57.13;24.87;;;;;;;2.28;74.45;99550.64;3523316;82;98541;-83
2022/03/29 22:21:06;;;;;;;54.70;23.50;;;;;;;2.22;74.90;99560.16;3527116;82;98648;-84
2022/03/29 22:26:08;;;;;;;44.83;19.97;;;;;;;2.16;74.99;99553.39;3536595;82;98808;-83
2022/03/29 22:31:10;;;;;;;41.97;18.60;;;;;;;2.13;75.31;99564.36;3530356;82;99123;-83
2022/03/29 22:36:11;;;;;;;38.73;16.27;;;;;;;2.08;75.21;99557.03;3540872;82;98611;-84
2022/03/29 22:41:12;;;;;;;37.33;16.83;;;;;;;2.01;75.58;99557.60;3532150;82;31648;-84
2022/03/29 22:46:13;;;;;;;38.00;15.57;;;;;;;1.94;75.24;99557.95;3531971;81;98980;-84
2022/03/29 22:51:16;;;;;;;34.90;15.05;;;;;;;1.87;75.45;99555.80;3529164;82;98688;-84
2022/03/29 23:01:37;;;;;;;32.47;14.53;;;;;;;1.74;75.75;99544.74;3527525;82;98789;-83
2022/03/29 23:06:38;;;;;;;28.83;13.27;;;;;;;1.70;76.13;99549.25;3537531;82;98666;-84
2022/03/29 23:11:39;;;;;;;35.20;14.17;;;;;;;1.59;76.06;99548.70;3522239;81;98702;-83
2022/03/29 23:16:40;;;;;;;28.43;13.70;;;;;;;1.50;75.81;99543.40;3523739;82;98608;-84
2022/03/29 23:21:42;;;;;;;34.93;12.50;;;;;;;1.43;75.85;99541.79;3511304;82;98664;-83
2022/03/29 23:26:43;;;;;;;32.30;12.53;;;;;;;1.39;76.55;99542.27;3517373;82;99170;-83
2022/03/29 23:31:44;;;;;;;29.47;12.53;;;;;;;1.31;76.80;99539.08;3510002;82;99123;-83
2022/03/29 23:36:46;;;;;;;32.87;11.93;;;;;;;1.25;76.97;99539.06;3533533;82;99192;-83